createdAt,value
2022-08-26T00:01:56.454Z,20.60
2022-08-26T00:04:25.426Z,20.50
2022-08-26T00:06:54.432Z,20.50
2022-08-26T00:09:22.122Z,20.40
2022-08-26T00:11:49.442Z,20.40
2022-08-26T00:14:18.160Z,20.30
2022-08-26T00:16:47.564Z,20.30
2022-08-26T00:19:18.100Z,20.20
2022-08-26T00:21:46.473Z,20.20
2022-08-26T00:24:20.333Z,20.10
2022-08-26T00:26:47.923Z,20.10
2022-08-26T00:29:15.606Z,20.10
2022-08-26T00:31:45.358Z,20.10
2022-08-26T00:34:14.255Z,20.10
2022-08-26T00:36:43.563Z,20.00
2022-08-26T00:39:11.361Z,20.00
2022-08-26T00:41:40.373Z,20.00
2022-08-26T00:44:11.202Z,20.00
2022-08-26T00:46:46.490Z,20.00
2022-08-26T00:49:41.946Z,20.30
2022-08-26T00:52:13.287Z,19.90
2022-08-26T00:54:51.569Z,19.90
2022-08-26T00:57:20.161Z,19.90
2022-08-26T00:59:51.271Z,20.40
2022-08-26T01:02:20.765Z,19.80
2022-08-26T01:04:55.617Z,19.70
2022-08-26T01:07:30.240Z,19.70
2022-08-26T01:10:05.068Z,19.70
2022-08-26T01:12:38.836Z,19.60
2022-08-26T01:15:11.404Z,19.50
2022-08-26T01:17:39.629Z,19.50
2022-08-26T01:20:18.113Z,19.50
2022-08-26T01:22:45.592Z,19.50
2022-08-26T01:25:14.153Z,20.30
2022-08-26T01:27:42.693Z,19.40
2022-08-26T01:30:12.701Z,19.40
2022-08-26T01:32:40.441Z,19.30
2022-08-26T01:35:08.810Z,19.30
2022-08-26T01:37:38.973Z,19.30
2022-08-26T01:40:12.504Z,19.20
2022-08-26T01:42:41.220Z,19.20
2022-08-26T01:45:15.505Z,19.20
2022-08-26T01:47:43.148Z,19.10
2022-08-26T01:50:27.811Z,19.10
2022-08-26T01:53:01.249Z,19.10
2022-08-26T01:55:33.062Z,19.10
2022-08-26T01:58:05.557Z,19.00
2022-08-26T02:00:34.528Z,19.60
2022-08-26T02:03:17.197Z,19.00
2022-08-26T02:05:48.734Z,18.90
2022-08-26T02:08:24.508Z,18.90
2022-08-26T02:10:54.086Z,19.00
2022-08-26T02:13:25.420Z,18.90
2022-08-26T02:15:55.529Z,18.30
2022-08-26T02:18:23.880Z,18.80
2022-08-26T02:20:54.342Z,18.80
2022-08-26T02:23:21.620Z,18.80
2022-08-26T02:26:07.172Z,18.90
2022-08-26T02:28:41.001Z,18.90
2022-08-26T02:31:08.519Z,18.90
2022-08-26T02:33:37.257Z,18.90
2022-08-26T02:36:10.682Z,18.90
2022-08-26T02:38:40.656Z,18.90
2022-08-26T02:41:11.227Z,18.90
2022-08-26T02:43:38.490Z,18.90
2022-08-26T02:46:06.047Z,18.90
2022-08-26T02:48:33.413Z,18.80
2022-08-26T02:51:01.654Z,18.80
2022-08-26T02:53:31.806Z,18.80
2022-08-26T02:55:59.810Z,18.70
2022-08-26T02:58:27.247Z,18.70
2022-08-26T03:00:54.566Z,18.90
2022-08-26T03:03:22.496Z,18.60
2022-08-26T03:05:51.360Z,18.60
2022-08-26T03:08:18.985Z,18.60
2022-08-26T03:10:47.486Z,18.50
2022-08-26T03:13:15.494Z,18.50
2022-08-26T03:15:45.896Z,18.50
2022-08-26T03:18:15.054Z,18.40
2022-08-26T03:20:42.154Z,18.70
2022-08-26T03:23:11.919Z,18.30
2022-08-26T03:25:40.154Z,18.40
2022-08-26T03:28:07.772Z,18.30
2022-08-26T03:30:44.687Z,18.90
2022-08-26T03:33:13.695Z,18.30
2022-08-26T03:35:43.590Z,18.30
2022-08-26T03:38:11.054Z,18.20
2022-08-26T03:40:38.754Z,18.30
2022-08-26T03:43:09.871Z,18.20
2022-08-26T03:45:38.090Z,18.20
2022-08-26T03:48:08.750Z,18.90
2022-08-26T03:50:36.206Z,18.20
2022-08-26T03:53:04.363Z,18.20
2022-08-26T03:55:35.536Z,18.20
2022-08-26T03:58:02.930Z,18.30
2022-08-26T04:00:30.864Z,18.30
2022-08-26T04:02:58.799Z,18.30
2022-08-26T04:05:26.067Z,18.40
2022-08-26T04:07:58.329Z,19.10
2022-08-26T04:10:29.147Z,18.60
2022-08-26T04:12:59.215Z,18.70
2022-08-26T04:15:27.194Z,18.90
2022-08-26T04:17:56.021Z,19.10
2022-08-26T04:20:25.589Z,19.50
2022-08-26T04:22:52.725Z,19.70
2022-08-26T04:25:20.477Z,20.50
2022-08-26T04:27:48.487Z,21.50
2022-08-26T04:30:15.987Z,22.70
2022-08-26T04:32:44.793Z,23.60
2022-08-26T04:35:12.104Z,24.40
2022-08-26T04:37:39.539Z,25.20
2022-08-26T04:40:10.434Z,25.80
2022-08-26T04:42:37.793Z,26.10
2022-08-26T04:45:10.351Z,25.80
2022-08-26T04:47:38.789Z,25.40
2022-08-26T04:50:07.505Z,25.10
2022-08-26T04:52:36.264Z,24.80
2022-08-26T04:55:06.709Z,24.60
2022-08-26T04:57:36.125Z,24.50
2022-08-26T05:00:06.181Z,24.40
2022-08-26T05:02:34.278Z,24.50
2022-08-26T05:05:01.577Z,24.50
2022-08-26T05:07:28.642Z,24.90
2022-08-26T05:09:55.928Z,25.50
2022-08-26T05:12:23.343Z,26.10
2022-08-26T05:14:50.729Z,26.60
2022-08-26T05:17:19.447Z,27.40
2022-08-26T05:19:47.246Z,28.30
2022-08-26T05:22:15.032Z,29.40
2022-08-26T05:24:43.263Z,29.30
2022-08-26T05:27:11.748Z,28.90
2022-08-26T05:29:40.005Z,28.40
2022-08-26T05:32:07.571Z,28.10
2022-08-26T05:34:34.597Z,28.00
2022-08-26T05:37:01.999Z,27.90
2022-08-26T05:39:31.589Z,27.90
2022-08-26T05:41:58.613Z,27.90
2022-08-26T05:44:26.971Z,27.70
2022-08-26T05:46:54.328Z,27.70
2022-08-26T05:49:26.185Z,27.90
2022-08-26T05:51:53.491Z,28.00
2022-08-26T05:54:21.771Z,28.30
2022-08-26T05:56:50.967Z,28.40
2022-08-26T05:59:24.242Z,28.40
2022-08-26T06:01:53.544Z,28.70
2022-08-26T06:04:21.489Z,29.40
2022-08-26T06:06:48.671Z,30.10
2022-08-26T06:09:18.262Z,30.60
2022-08-26T06:11:45.615Z,30.50
2022-08-26T06:14:12.814Z,30.30
2022-08-26T06:16:43.726Z,30.20
2022-08-26T06:19:14.421Z,29.80
2022-08-26T06:21:45.589Z,29.60
2022-08-26T06:24:32.583Z,29.50
2022-08-26T06:27:02.574Z,29.80
2022-08-26T06:29:33.630Z,30.70
2022-08-26T06:32:01.776Z,32.00
2022-08-26T06:34:30.338Z,32.70
2022-08-26T06:37:02.458Z,33.80
2022-08-26T06:39:30.892Z,34.30
2022-08-26T06:41:59.614Z,34.50
2022-08-26T06:44:27.242Z,33.80
2022-08-26T06:46:54.837Z,33.40
2022-08-26T06:49:27.263Z,33.90
2022-08-26T06:51:58.574Z,34.30
2022-08-26T06:54:27.650Z,34.80
2022-08-26T06:56:56.823Z,35.10
2022-08-26T06:59:24.438Z,34.60
2022-08-26T07:01:52.280Z,33.40
2022-08-26T07:04:24.085Z,32.50
2022-08-26T07:06:53.503Z,31.10
2022-08-26T07:09:23.226Z,30.10
2022-08-26T07:11:51.668Z,29.80
2022-08-26T07:14:21.217Z,29.40
2022-08-26T07:16:49.647Z,29.10
2022-08-26T07:19:18.972Z,28.60
2022-08-26T07:22:03.371Z,28.10
2022-08-26T07:24:35.547Z,28.20
2022-08-26T07:27:05.989Z,28.30
2022-08-26T07:29:34.435Z,28.00
2022-08-26T07:32:02.541Z,27.90
2022-08-26T07:34:32.253Z,28.00
2022-08-26T07:37:00.979Z,27.70
2022-08-26T07:39:28.549Z,27.80
2022-08-26T07:42:01.720Z,27.90
2022-08-26T07:44:36.367Z,27.90
2022-08-26T07:47:04.038Z,27.90
2022-08-26T07:49:38.307Z,28.00
2022-08-26T07:52:06.588Z,28.20
2022-08-26T07:54:33.902Z,28.10
2022-08-26T07:57:01.592Z,27.90
2022-08-26T07:59:32.622Z,28.00
2022-08-26T08:02:00.601Z,28.40
2022-08-26T08:04:28.081Z,28.40
2022-08-26T08:06:55.580Z,28.40
2022-08-26T08:09:23.220Z,28.60
2022-08-26T08:11:53.011Z,28.40
2022-08-26T08:14:22.310Z,28.40
2022-08-26T08:16:50.978Z,28.40
2022-08-26T08:19:21.897Z,28.40
2022-08-26T08:21:49.269Z,28.20
2022-08-26T08:24:16.399Z,28.20
2022-08-26T08:26:44.090Z,27.90
2022-08-26T08:29:11.249Z,27.70
2022-08-26T08:31:56.953Z,27.60
2022-08-26T08:34:28.462Z,27.60
2022-08-26T08:36:57.505Z,27.60
2022-08-26T08:39:25.622Z,27.70
2022-08-26T08:42:25.934Z,28.00
2022-08-26T08:44:57.579Z,28.00
2022-08-26T08:47:38.922Z,28.00
2022-08-26T08:50:11.882Z,27.90
2022-08-26T08:52:41.239Z,27.80
2022-08-26T08:55:14.797Z,27.90
2022-08-26T08:58:05.962Z,28.00
2022-08-26T09:00:44.642Z,27.90
2022-08-26T09:03:29.803Z,28.10
2022-08-26T09:05:59.913Z,28.20
2022-08-26T09:08:32.157Z,28.40
2022-08-26T09:11:00.801Z,28.40
2022-08-26T09:13:29.229Z,28.50
2022-08-26T09:16:24.370Z,28.50
2022-08-26T09:19:45.822Z,28.30
2022-08-26T09:22:31.182Z,28.20
2022-08-26T09:24:58.839Z,27.50
2022-08-26T09:27:50.403Z,27.40
2022-08-26T09:30:38.933Z,27.20
2022-08-26T09:33:10.171Z,27.20
2022-08-26T09:35:41.500Z,27.00
2022-08-26T09:38:26.770Z,27.10
2022-08-26T09:41:05.177Z,27.30
2022-08-26T09:43:32.490Z,27.20
2022-08-26T09:46:24.465Z,27.10
2022-08-26T09:48:51.875Z,27.20
2022-08-26T09:51:23.175Z,27.30
2022-08-26T09:54:01.971Z,27.50
2022-08-26T09:56:29.372Z,27.60
2022-08-26T09:58:57.459Z,27.70
2022-08-26T10:01:38.636Z,28.00
2022-08-26T10:04:14.068Z,31.10
2022-08-26T10:06:55.077Z,28.70
2022-08-26T10:09:25.928Z,29.10
2022-08-26T10:12:17.414Z,29.30
2022-08-26T10:14:59.783Z,29.40
2022-08-26T10:17:40.220Z,29.40
2022-08-26T10:20:22.581Z,29.50
2022-08-26T10:23:17.267Z,29.40
2022-08-26T10:26:08.422Z,29.30
2022-08-26T10:28:45.517Z,29.40
2022-08-26T10:31:40.148Z,29.60
2022-08-26T10:34:09.635Z,29.80
2022-08-26T10:40:12.197Z,29.90
2022-08-26T10:43:10.982Z,29.80
2022-08-26T10:46:08.013Z,29.50
2022-08-26T10:48:42.742Z,29.50
2022-08-26T10:51:12.665Z,29.50
2022-08-26T10:53:52.919Z,29.40
2022-08-26T10:56:30.053Z,29.30
2022-08-26T10:59:25.411Z,29.20
2022-08-26T11:02:16.012Z,29.00
2022-08-26T11:04:48.501Z,29.00
2022-08-26T11:07:35.463Z,28.90
2022-08-26T11:10:31.681Z,29.00
2022-08-26T11:13:03.852Z,29.10
2022-08-26T11:15:31.619Z,29.00
2022-08-26T11:18:11.404Z,29.00
2022-08-26T11:20:44.247Z,29.00
2022-08-26T11:23:20.669Z,29.20
2022-08-26T11:26:07.578Z,29.20
2022-08-26T11:28:44.205Z,29.10
2022-08-26T11:31:40.582Z,29.20
2022-08-26T11:34:12.759Z,29.10
2022-08-26T11:36:46.048Z,29.10
2022-08-26T11:39:31.944Z,29.10
2022-08-26T11:42:27.781Z,29.20
2022-08-26T11:44:58.058Z,29.20
2022-08-26T11:47:29.529Z,29.20
2022-08-26T11:50:15.285Z,29.30
2022-08-26T11:52:51.956Z,29.30
2022-08-26T11:55:20.134Z,29.30
2022-08-26T11:57:56.753Z,29.30
2022-08-26T12:00:33.547Z,29.30
2022-08-26T12:03:07.266Z,29.40
2022-08-26T12:05:44.925Z,29.30
2022-08-26T12:08:17.000Z,29.20
2022-08-26T12:10:45.650Z,29.20
2022-08-26T12:13:25.085Z,29.30
2022-08-26T12:15:57.436Z,29.60
2022-08-26T12:18:33.250Z,29.50
2022-08-26T12:21:14.655Z,29.50
2022-08-26T12:23:46.927Z,29.50
2022-08-26T12:26:32.717Z,29.50
2022-08-26T12:29:12.746Z,29.60
2022-08-26T12:31:50.487Z,29.60
2022-08-26T12:34:18.634Z,29.70
2022-08-26T12:36:50.435Z,29.70
2022-08-26T12:39:24.624Z,29.70
2022-08-26T12:41:55.665Z,29.60
2022-08-26T12:44:41.833Z,29.60
2022-08-26T12:47:36.918Z,29.50
2022-08-26T12:50:21.174Z,29.50
2022-08-26T12:53:00.105Z,29.50
2022-08-26T12:55:33.238Z,29.40
2022-08-26T12:58:35.142Z,29.40
2022-08-26T13:01:05.402Z,29.40
2022-08-26T13:03:38.425Z,29.40
2022-08-26T13:06:30.005Z,29.30
2022-08-26T13:09:09.317Z,29.30
2022-08-26T13:11:39.767Z,29.30
2022-08-26T13:14:12.168Z,29.30
2022-08-26T13:16:49.390Z,29.30
2022-08-26T13:19:19.319Z,29.30
2022-08-26T13:21:53.900Z,29.30
2022-08-26T13:24:33.422Z,29.30
2022-08-26T13:27:01.730Z,29.20
2022-08-26T13:29:29.200Z,29.30
2022-08-26T13:31:58.613Z,29.30
2022-08-26T13:34:27.159Z,29.30
2022-08-26T13:36:56.375Z,29.30
2022-08-26T13:39:24.474Z,29.30
2022-08-26T13:41:52.499Z,29.30
2022-08-26T13:44:19.890Z,29.40
2022-08-26T13:46:47.038Z,29.20
2022-08-26T13:49:14.210Z,29.10
2022-08-26T13:51:42.072Z,29.10
2022-08-26T13:54:09.123Z,29.10
2022-08-26T13:56:37.557Z,29.00
2022-08-26T13:59:06.522Z,29.00
2022-08-26T14:01:35.122Z,29.00
2022-08-26T14:04:03.226Z,29.00
2022-08-26T14:06:31.414Z,29.00
2022-08-26T14:08:58.698Z,28.90
2022-08-26T14:11:26.136Z,28.90
2022-08-26T14:13:53.420Z,28.70
2022-08-26T14:16:27.426Z,29.00
2022-08-26T14:18:55.080Z,29.00
2022-08-26T14:21:30.316Z,28.80
2022-08-26T14:24:00.805Z,28.90
2022-08-26T14:26:29.772Z,28.80
2022-08-26T14:28:59.536Z,28.80
2022-08-26T14:31:29.533Z,28.80
2022-08-26T14:34:05.732Z,28.80
2022-08-26T14:36:35.209Z,28.80
2022-08-26T14:39:10.380Z,28.90
2022-08-26T14:41:54.261Z,28.80
2022-08-26T14:44:31.243Z,28.80
2022-08-26T14:47:02.030Z,28.80
2022-08-26T14:49:31.135Z,28.70
2022-08-26T14:51:58.381Z,28.70
2022-08-26T14:54:26.151Z,28.70
2022-08-26T14:56:55.079Z,28.60
2022-08-26T14:59:28.026Z,28.60
2022-08-26T15:01:56.304Z,28.60
2022-08-26T15:04:24.396Z,28.50
2022-08-26T15:06:54.008Z,28.50
2022-08-26T15:09:22.542Z,28.50
2022-08-26T15:11:50.455Z,28.40
2022-08-26T15:14:19.534Z,28.40
2022-08-26T15:16:49.594Z,28.40
2022-08-26T15:19:17.473Z,28.40
2022-08-26T15:21:45.730Z,28.30
2022-08-26T15:24:15.347Z,28.30
2022-08-26T15:26:43.365Z,28.30
2022-08-26T15:29:10.619Z,28.20
2022-08-26T15:31:37.962Z,28.20
2022-08-26T15:34:11.096Z,28.20
2022-08-26T15:36:44.693Z,28.20
2022-08-26T15:39:13.031Z,28.20
2022-08-26T15:41:41.111Z,28.10
2022-08-26T15:44:09.520Z,28.10
2022-08-26T15:46:38.491Z,28.00
2022-08-26T15:49:06.423Z,28.00
2022-08-26T15:51:45.366Z,28.00
2022-08-26T15:54:16.683Z,27.90
2022-08-26T15:56:44.468Z,27.90
2022-08-26T15:59:12.051Z,27.90
2022-08-26T16:01:39.482Z,28.00
2022-08-26T16:04:07.486Z,27.80
2022-08-26T16:06:37.210Z,27.80
2022-08-26T16:09:05.552Z,27.70
2022-08-26T16:11:36.162Z,27.70
2022-08-26T16:14:04.667Z,27.60
2022-08-26T16:16:32.331Z,27.60
2022-08-26T16:19:00.605Z,27.60
2022-08-26T16:21:31.171Z,27.50
2022-08-26T16:23:58.470Z,27.50
2022-08-26T16:26:32.915Z,27.50
2022-08-26T16:29:04.811Z,27.40
2022-08-26T16:31:32.254Z,27.40
2022-08-26T16:33:59.388Z,27.30
2022-08-26T16:36:26.423Z,27.30
2022-08-26T16:38:56.244Z,27.20
2022-08-26T16:41:25.524Z,27.20
2022-08-26T16:43:53.528Z,27.20
2022-08-26T16:46:23.769Z,27.00
2022-08-26T16:48:51.291Z,27.00
2022-08-26T16:51:22.965Z,26.90
2022-08-26T16:53:51.684Z,26.90
2022-08-26T16:56:21.576Z,26.80
2022-08-26T16:58:49.298Z,26.70
2022-08-26T17:01:18.846Z,26.60
2022-08-26T17:03:46.559Z,26.50
2022-08-26T17:06:14.108Z,26.40
2022-08-26T17:08:42.110Z,26.40
2022-08-26T17:11:10.167Z,26.20
2022-08-26T17:13:39.305Z,26.30
2022-08-26T17:16:08.911Z,26.20
2022-08-26T17:18:37.257Z,25.90
2022-08-26T17:21:08.240Z,25.80
2022-08-26T17:23:36.142Z,25.70
2022-08-26T17:26:04.084Z,25.60
2022-08-26T17:28:31.998Z,25.50
2022-08-26T17:30:59.437Z,25.40
2022-08-26T17:33:26.924Z,25.30
2022-08-26T17:35:54.691Z,25.20
2022-08-26T17:38:21.922Z,25.10
2022-08-26T17:40:49.760Z,25.00
2022-08-26T17:43:17.396Z,24.90
2022-08-26T17:45:44.685Z,24.80
2022-08-26T17:48:12.406Z,24.70
2022-08-26T17:50:41.299Z,24.60
2022-08-26T17:53:12.632Z,24.40
2022-08-26T17:55:48.100Z,24.40
2022-08-26T17:58:17.223Z,24.30
2022-08-26T18:00:50.087Z,24.20
2022-08-26T18:03:18.453Z,24.10
2022-08-26T18:05:51.606Z,24.00
2022-08-26T18:08:20.014Z,24.00
2022-08-26T18:10:47.623Z,23.80
2022-08-26T18:13:15.403Z,23.80
2022-08-26T18:15:45.372Z,23.70
2022-08-26T18:18:14.809Z,23.60
2022-08-26T18:20:43.768Z,23.50
2022-08-26T18:23:12.813Z,23.50
2022-08-26T18:25:41.365Z,23.40
2022-08-26T18:28:08.929Z,23.30
2022-08-26T18:30:36.308Z,23.20
2022-08-26T18:33:03.544Z,23.20
2022-08-26T18:35:30.819Z,23.00
2022-08-26T18:37:58.507Z,22.80
2022-08-26T18:40:38.046Z,22.80
2022-08-26T18:43:05.492Z,22.70
2022-08-26T18:45:32.641Z,22.60
2022-08-26T18:48:00.816Z,22.60
2022-08-26T18:50:28.464Z,22.50
2022-08-26T18:52:55.617Z,22.60
2022-08-26T18:55:23.018Z,22.60
2022-08-26T18:57:50.774Z,22.50
2022-08-26T19:00:18.010Z,22.50
2022-08-26T19:02:51.749Z,22.50
2022-08-26T19:05:19.818Z,22.60
2022-08-26T19:07:47.986Z,22.60
2022-08-26T19:10:15.366Z,22.60
2022-08-26T19:12:42.632Z,22.60
2022-08-26T19:15:11.505Z,22.60
2022-08-26T19:17:38.936Z,22.60
2022-08-26T19:20:08.288Z,22.50
2022-08-26T19:22:35.337Z,22.50
2022-08-26T19:25:02.465Z,22.50
2022-08-26T19:27:30.012Z,22.50
2022-08-26T19:29:57.741Z,22.50
2022-08-26T19:32:25.608Z,22.50
2022-08-26T19:34:53.259Z,22.40
2022-08-26T19:37:20.718Z,22.40
2022-08-26T19:39:48.343Z,22.70
2022-08-26T19:42:16.653Z,22.20
2022-08-26T19:45:02.954Z,22.30
2022-08-26T19:47:30.397Z,22.20
2022-08-26T19:49:57.808Z,22.20
2022-08-26T19:52:30.095Z,22.20
2022-08-26T19:54:58.647Z,22.20
2022-08-26T19:57:25.947Z,22.10
2022-08-26T19:59:53.223Z,22.10
2022-08-26T20:02:20.642Z,22.10
2022-08-26T20:04:47.764Z,22.10
2022-08-26T20:07:18.153Z,22.10
2022-08-26T20:09:47.791Z,22.00
2022-08-26T20:12:15.606Z,22.10
2022-08-26T20:14:42.951Z,22.10
2022-08-26T20:17:10.698Z,22.10
2022-08-26T20:19:56.878Z,22.10
2022-08-26T20:22:24.309Z,22.10
2022-08-26T20:24:52.221Z,22.10
2022-08-26T20:27:19.785Z,22.10
2022-08-26T20:29:47.275Z,22.10
2022-08-26T20:32:14.651Z,22.10
2022-08-26T20:34:42.918Z,22.10
2022-08-26T20:37:12.333Z,22.10
2022-08-26T20:39:39.610Z,22.10
2022-08-26T20:42:20.496Z,22.10
2022-08-26T20:44:54.525Z,22.10
2022-08-26T20:47:23.261Z,22.00
2022-08-26T20:49:52.371Z,22.00
2022-08-26T20:52:20.181Z,22.10
2022-08-26T20:54:47.508Z,22.10
2022-08-26T20:57:14.897Z,22.00
2022-08-26T20:59:43.041Z,22.00
2022-08-26T21:02:10.176Z,22.00
2022-08-26T21:04:37.568Z,22.10
2022-08-26T21:07:06.546Z,22.00
2022-08-26T21:09:33.818Z,22.00
2022-08-26T21:12:01.530Z,22.00
2022-08-26T21:14:28.732Z,22.00
2022-08-26T21:17:01.066Z,21.90
2022-08-26T21:19:28.677Z,21.90
2022-08-26T21:21:57.666Z,21.90
2022-08-26T21:24:25.180Z,21.90
2022-08-26T21:26:52.779Z,21.90
2022-08-26T21:29:22.052Z,21.80
2022-08-26T21:31:49.335Z,21.80
2022-08-26T21:34:18.814Z,21.80
2022-08-26T21:36:47.037Z,21.90
2022-08-26T21:39:14.481Z,21.80
2022-08-26T21:41:43.303Z,21.80
2022-08-26T21:44:11.886Z,21.80
2022-08-26T21:46:39.579Z,21.80
2022-08-26T21:49:10.594Z,22.00
2022-08-26T21:51:40.930Z,21.80
2022-08-26T21:54:11.379Z,21.80
2022-08-26T21:56:46.115Z,21.80
2022-08-26T21:59:17.718Z,21.70
2022-08-26T22:01:46.038Z,21.70
2022-08-26T22:04:13.216Z,21.60
2022-08-26T22:06:43.934Z,21.70
2022-08-26T22:09:12.809Z,22.40
2022-08-26T22:11:40.351Z,21.70
2022-08-26T22:14:08.147Z,21.70
2022-08-26T22:16:35.305Z,21.70
2022-08-26T22:19:02.471Z,21.70
2022-08-26T22:21:30.570Z,21.60
2022-08-26T22:23:58.670Z,21.70
2022-08-26T22:26:28.775Z,21.70
2022-08-26T22:28:59.152Z,21.70
2022-08-26T22:31:37.804Z,21.60
2022-08-26T22:34:08.509Z,21.70
2022-08-26T22:36:42.687Z,21.60
2022-08-26T22:39:13.698Z,21.60
2022-08-26T22:41:43.076Z,21.60
2022-08-26T22:44:11.837Z,21.50
2022-08-26T22:46:41.012Z,21.50
2022-08-26T22:49:10.138Z,21.50
2022-08-26T22:51:37.220Z,21.70
2022-08-26T22:54:05.551Z,21.50
2022-08-26T22:56:32.638Z,21.40
2022-08-26T22:58:59.757Z,21.40
2022-08-26T23:01:27.496Z,21.40
2022-08-26T23:03:54.653Z,21.60
2022-08-26T23:06:21.909Z,22.30
2022-08-26T23:08:49.450Z,21.30
2022-08-26T23:11:16.557Z,21.30
2022-08-26T23:13:43.658Z,21.30
2022-08-26T23:16:12.667Z,22.50
2022-08-26T23:18:41.038Z,21.30
2022-08-26T23:21:09.486Z,21.40
2022-08-26T23:23:38.003Z,21.20
2022-08-26T23:26:07.767Z,21.20
2022-08-26T23:28:38.534Z,21.20
2022-08-26T23:31:06.671Z,21.10
2022-08-26T23:33:52.258Z,21.10
2022-08-26T23:36:22.872Z,21.10
2022-08-26T23:38:52.939Z,21.10
2022-08-26T23:41:24.202Z,21.10
2022-08-26T23:43:51.667Z,21.00
2022-08-26T23:46:19.507Z,21.10
2022-08-26T23:48:47.266Z,21.10
2022-08-26T23:51:32.935Z,21.00
2022-08-26T23:54:00.211Z,21.60
2022-08-26T23:56:27.674Z,21.00
2022-08-26T23:58:56.304Z,20.90
